LIPALIPZ

Guest
Details From LIPA - Aviano Ab
To LIPZ - Venezia Tessera
Flight Number -
Tags Generated
Created
Modified
Stats Distance 33 nm / 62 km
Max Altitude 0 ft / 0 m
Waypoints 2
Social Downloads 0
Likes 0
Share VATSIM

Download

Looking for another format? Having issues loading an existing format? Contact us
Advertisement - Login to hide

Notes

Generated

Route

LIPA LIPZ

ID Type Via Altitude Latitude Longitude Leg Dist Tot Dist Heading (true) Name
O LIPA APT - 0 ft / 0 m 46.02333˚ 12.58389˚ - 0 nm - -
O LIPZ APT - 0 ft / 0 m 45.49516˚ 12.33556˚ 33 nm 33 nm 198° / 198° -

Altitude Profile

Advertisement - Login to hide

LIPA

Details ICAO LIPA (AVB)
Name AVIANO AB
Region Italy
Timezone Europe/Rome (UTC+1.0)
Stats Elevation 410 ft / 125 m (AMSL)
Location 46.031111° 12.596389°
Runways 1
Magnetic Variation 3.254° E

METAR

LIPA 122055Z 05006KT 9999 SCT080 07/06 Q1012 RMK SCT VIS MIN 9999 WIND THR05 /////KT WIND THR23 /////KT A2991 BLU

Decode

TAF

Not found

Departure Runways

ID Width Length Bearing (true) Bearing (mag) Surface Threshold Offset Overrun Length
05 144 ft / 44 m 8,505 ft / 2,592 m 48.12° 44.87° Asphalt 0 ft / 0 m 845 ft / 258 m
23 144 ft / 44 m 8,505 ft / 2,592 m 228.14° 224.89° Asphalt 0 ft / 0 m 919 ft / 280 m

LIPZ

Details ICAO LIPZ (VCE)
Name Venezia Tessera
Region Italy
Timezone Europe/Rome (UTC+1.0)
Stats Elevation 7 ft / 2 m (AMSL)
Location 45.504791° 12.349691°
Runways 2
Magnetic Variation 3.179° E

METAR

LIPZ 122150Z 27002KT CAVOK 07/06 Q1013 NOSIG

Decode

TAF

TAF LIPZ 121700Z 1218/1324 VRB05KT 7000 SCT040 BECMG 1218/1220 3000 BR BKN010 TEMPO 1300/1308 0800 FG BECMG 1306/1309 03012KT SCT025 BECMG 1316/1318 VRB05KT

Decode

Destination Runways

ID Width Length Bearing (true) Bearing (mag) Surface Threshold Offset Overrun Length
04L 148 ft / 45 m 9,112 ft / 2,777 m 42.01° 38.83° Asphalt 312 ft / 95 m 0 ft / 0 m
04R 148 ft / 45 m 10,834 ft / 3,302 m 41.99° 38.81° Asphalt 0 ft / 0 m 0 ft / 0 m
22L 148 ft / 45 m 10,834 ft / 3,302 m 222.01° 218.83° Asphalt 0 ft / 0 m 0 ft / 0 m
22R 148 ft / 45 m 9,112 ft / 2,777 m 222.02° 218.84° Asphalt 0 ft / 0 m 0 ft / 0 m

Approach Navaids

Runway Type Ident Frequency Range Bearing (true) Bearing (mag) Slope Elevation
04R Localiser VTS 109.95 MHz 18 nm / 33 km 42.02° 38.84° - 13 ft / 4 m (AMSL)
04R Glidescope VTS 109.95 MHz 10 nm / 19 km 42.00° 38.82° 3.00° 52 ft / 16 m (AMSL)
04R DME VTS 109.95 MHz 18 nm / 33 km - - - 26 ft / 8 m (AMSL)

Popular Alternatives